sensor_id;sensor_type;location;lat;lon;timestamp;P1;durP1;ratioP1;P2;durP2;ratioP2
29538;SDS011;16482;51.046;4.498;2023-03-01T00:00:27;4.05;;;3.40;;
29538;SDS011;16482;51.046;4.498;2023-03-01T00:03:02;4.57;;;3.50;;
29538;SDS011;16482;51.046;4.498;2023-03-01T00:05:28;5.07;;;3.55;;
29538;SDS011;16482;51.046;4.498;2023-03-01T00:08:03;6.20;;;3.85;;
29538;SDS011;16482;51.046;4.498;2023-03-01T00:10:29;3.83;;;3.25;;
29538;SDS011;16482;51.046;4.498;2023-03-01T00:12:58;4.00;;;3.60;;
29538;SDS011;16482;51.046;4.498;2023-03-01T00:15:27;4.75;;;3.38;;
29538;SDS011;16482;51.046;4.498;2023-03-01T00:18:03;5.20;;;3.20;;
29538;SDS011;16482;51.046;4.498;2023-03-01T00:20:29;4.22;;;3.30;;
29538;SDS011;16482;51.046;4.498;2023-03-01T00:22:58;4.53;;;3.45;;
29538;SDS011;16482;51.046;4.498;2023-03-01T00:25:27;4.53;;;3.40;;
29538;SDS011;16482;51.046;4.498;2023-03-01T00:27:59;4.10;;;3.17;;
29538;SDS011;16482;51.046;4.498;2023-03-01T00:30:27;5.88;;;3.50;;
29538;SDS011;16482;51.046;4.498;2023-03-01T00:33:02;4.90;;;3.60;;
29538;SDS011;16482;51.046;4.498;2023-03-01T00:35:32;4.55;;;3.38;;
29538;SDS011;16482;51.046;4.498;2023-03-01T00:37:58;5.25;;;3.40;;
29538;SDS011;16482;51.046;4.498;2023-03-01T00:40:34;6.43;;;3.53;;
29538;SDS011;16482;51.046;4.498;2023-03-01T00:43:01;3.63;;;3.00;;
29538;SDS011;16482;51.046;4.498;2023-03-01T00:45:28;4.18;;;3.33;;
29538;SDS011;16482;51.046;4.498;2023-03-01T00:47:58;4.63;;;3.53;;
29538;SDS011;16482;51.046;4.498;2023-03-01T00:50:27;3.83;;;3.03;;
29538;SDS011;16482;51.046;4.498;2023-03-01T00:52:58;4.13;;;3.15;;
29538;SDS011;16482;51.046;4.498;2023-03-01T00:55:33;3.63;;;3.10;;
29538;SDS011;16482;51.046;4.498;2023-03-01T00:58:01;4.80;;;3.25;;
29538;SDS011;16482;51.046;4.498;2023-03-01T01:00:29;4.75;;;3.13;;
29538;SDS011;16482;51.046;4.498;2023-03-01T01:03:04;4.55;;;3.50;;
29538;SDS011;16482;51.046;4.498;2023-03-01T01:05:30;5.05;;;3.63;;
29538;SDS011;16482;51.046;4.498;2023-03-01T01:08:03;4.47;;;3.25;;
29538;SDS011;16482;51.046;4.498;2023-03-01T01:10:29;3.97;;;3.10;;
29538;SDS011;16482;51.046;4.498;2023-03-01T01:13:02;3.88;;;3.20;;
29538;SDS011;16482;51.046;4.498;2023-03-01T01:15:31;4.20;;;3.33;;
29538;SDS011;16482;51.046;4.498;2023-03-01T01:17:59;4.40;;;3.00;;
29538;SDS011;16482;51.046;4.498;2023-03-01T01:20:28;4.35;;;3.30;;
29538;SDS011;16482;51.046;4.498;2023-03-01T01:22:57;3.83;;;3.22;;
29538;SDS011;16482;51.046;4.498;2023-03-01T01:25:28;5.38;;;3.40;;
29538;SDS011;16482;51.046;4.498;2023-03-01T01:27:57;5.15;;;3.40;;
29538;SDS011;16482;51.046;4.498;2023-03-01T01:30:30;4.88;;;3.38;;
29538;SDS011;16482;51.046;4.498;2023-03-01T01:32:58;5.07;;;3.80;;
29538;SDS011;16482;51.046;4.498;2023-03-01T01:35:32;4.03;;;3.38;;
29538;SDS011;16482;51.046;4.498;2023-03-01T01:37:58;5.05;;;3.42;;
29538;SDS011;16482;51.046;4.498;2023-03-01T01:40:31;4.35;;;3.30;;
29538;SDS011;16482;51.046;4.498;2023-03-01T01:43:00;4.00;;;3.38;;
29538;SDS011;16482;51.046;4.498;2023-03-01T01:45:33;4.15;;;3.28;;
29538;SDS011;16482;51.046;4.498;2023-03-01T01:48:04;3.60;;;3.05;;
29538;SDS011;16482;51.046;4.498;2023-03-01T01:50:38;4.93;;;3.45;;
29538;SDS011;16482;51.046;4.498;2023-03-01T01:53:09;4.13;;;2.83;;
29538;SDS011;16482;51.046;4.498;2023-03-01T01:55:44;3.40;;;3.10;;
29538;SDS011;16482;51.046;4.498;2023-03-01T01:58:13;3.97;;;2.90;;
29538;SDS011;16482;51.046;4.498;2023-03-01T02:00:43;5.25;;;3.40;;
29538;SDS011;16482;51.046;4.498;2023-03-01T02:03:10;4.53;;;3.30;;
29538;SDS011;16482;51.046;4.498;2023-03-01T02:08:20;4.72;;;3.40;;
29538;SDS011;16482;51.046;4.498;2023-03-01T02:10:48;4.93;;;3.28;;
29538;SDS011;16482;51.046;4.498;2023-03-01T02:13:15;4.40;;;3.50;;
29538;SDS011;16482;51.046;4.498;2023-03-01T02:15:41;4.63;;;3.53;;
29538;SDS011;16482;51.046;4.498;2023-03-01T02:18:12;4.45;;;3.08;;
29538;SDS011;16482;51.046;4.498;2023-03-01T02:20:52;3.95;;;3.28;;
29538;SDS011;16482;51.046;4.498;2023-03-01T02:23:26;4.60;;;2.75;;
29538;SDS011;16482;51.046;4.498;2023-03-01T02:26:04;4.63;;;3.20;;
29538;SDS011;16482;51.046;4.498;2023-03-01T02:28:37;3.25;;;2.75;;
29538;SDS011;16482;51.046;4.498;2023-03-01T02:31:06;4.20;;;3.38;;
29538;SDS011;16482;51.046;4.498;2023-03-01T02:33:52;5.07;;;3.25;;
29538;SDS011;16482;51.046;4.498;2023-03-01T02:36:21;4.20;;;3.05;;
29538;SDS011;16482;51.046;4.498;2023-03-01T02:38:51;3.28;;;2.95;;
29538;SDS011;16482;51.046;4.498;2023-03-01T02:41:21;5.03;;;3.38;;
29538;SDS011;16482;51.046;4.498;2023-03-01T02:43:51;4.05;;;3.15;;
29538;SDS011;16482;51.046;4.498;2023-03-01T02:46:18;5.03;;;3.30;;
29538;SDS011;16482;51.046;4.498;2023-03-01T02:48:51;5.35;;;3.60;;
29538;SDS011;16482;51.046;4.498;2023-03-01T02:54:26;4.47;;;3.13;;
29538;SDS011;16482;51.046;4.498;2023-03-01T02:57:08;4.07;;;2.90;;
29538;SDS011;16482;51.046;4.498;2023-03-01T02:59:36;4.22;;;3.22;;
29538;SDS011;16482;51.046;4.498;2023-03-01T03:02:16;4.97;;;3.28;;
29538;SDS011;16482;51.046;4.498;2023-03-01T03:07:59;5.13;;;3.50;;
29538;SDS011;16482;51.046;4.498;2023-03-01T03:10:31;4.50;;;3.35;;
29538;SDS011;16482;51.046;4.498;2023-03-01T03:13:06;4.70;;;3.20;;
29538;SDS011;16482;51.046;4.498;2023-03-01T03:18:04;5.00;;;3.25;;
29538;SDS011;16482;51.046;4.498;2023-03-01T03:20:32;5.28;;;3.40;;
29538;SDS011;16482;51.046;4.498;2023-03-01T03:22:58;4.30;;;3.38;;
29538;SDS011;16482;51.046;4.498;2023-03-01T03:25:34;4.63;;;3.20;;
29538;SDS011;16482;51.046;4.498;2023-03-01T03:28:03;4.50;;;3.10;;
29538;SDS011;16482;51.046;4.498;2023-03-01T03:30:35;4.05;;;3.25;;
29538;SDS011;16482;51.046;4.498;2023-03-01T03:33:04;3.58;;;2.92;;
29538;SDS011;16482;51.046;4.498;2023-03-01T03:35:37;4.95;;;3.50;;
29538;SDS011;16482;51.046;4.498;2023-03-01T03:38:05;3.83;;;3.17;;
29538;SDS011;16482;51.046;4.498;2023-03-01T03:40:41;4.00;;;2.97;;
29538;SDS011;16482;51.046;4.498;2023-03-01T03:43:12;5.13;;;3.05;;
29538;SDS011;16482;51.046;4.498;2023-03-01T03:45:46;4.32;;;3.20;;
29538;SDS011;16482;51.046;4.498;2023-03-01T03:48:13;4.25;;;3.13;;
29538;SDS011;16482;51.046;4.498;2023-03-01T03:50:46;3.80;;;3.00;;
29538;SDS011;16482;51.046;4.498;2023-03-01T03:53:14;5.03;;;3.28;;
29538;SDS011;16482;51.046;4.498;2023-03-01T03:55:40;3.78;;;2.90;;
29538;SDS011;16482;51.046;4.498;2023-03-01T03:58:07;4.25;;;3.08;;
29538;SDS011;16482;51.046;4.498;2023-03-01T04:00:39;4.97;;;2.80;;
29538;SDS011;16482;51.046;4.498;2023-03-01T04:03:07;3.80;;;2.85;;
29538;SDS011;16482;51.046;4.498;2023-03-01T04:05:33;4.80;;;3.20;;
29538;SDS011;16482;51.046;4.498;2023-03-01T04:08:00;4.60;;;3.30;;
29538;SDS011;16482;51.046;4.498;2023-03-01T04:10:27;3.83;;;2.88;;
29538;SDS011;16482;51.046;4.498;2023-03-01T04:13:03;4.30;;;3.17;;
29538;SDS011;16482;51.046;4.498;2023-03-01T04:15:31;3.15;;;2.65;;
29538;SDS011;16482;51.046;4.498;2023-03-01T04:18:00;5.35;;;3.28;;
29538;SDS011;16482;51.046;4.498;2023-03-01T04:20:27;3.88;;;3.08;;
29538;SDS011;16482;51.046;4.498;2023-03-01T04:23:06;4.35;;;2.92;;
29538;SDS011;16482;51.046;4.498;2023-03-01T04:28:07;2.88;;;2.50;;
29538;SDS011;16482;51.046;4.498;2023-03-01T04:30:34;3.65;;;3.03;;
29538;SDS011;16482;51.046;4.498;2023-03-01T04:33:05;3.50;;;2.85;;
29538;SDS011;16482;51.046;4.498;2023-03-01T04:35:32;4.85;;;3.10;;
29538;SDS011;16482;51.046;4.498;2023-03-01T04:37:59;4.03;;;3.28;;
29538;SDS011;16482;51.046;4.498;2023-03-01T04:40:28;5.43;;;3.38;;
29538;SDS011;16482;51.046;4.498;2023-03-01T04:43:03;4.07;;;3.25;;
29538;SDS011;16482;51.046;4.498;2023-03-01T04:47:57;4.65;;;2.92;;
29538;SDS011;16482;51.046;4.498;2023-03-01T04:50:30;4.40;;;2.75;;
29538;SDS011;16482;51.046;4.498;2023-03-01T04:52:56;4.70;;;2.65;;
29538;SDS011;16482;51.046;4.498;2023-03-01T04:55:31;3.90;;;2.60;;
29538;SDS011;16482;51.046;4.498;2023-03-01T04:58:04;4.18;;;2.83;;
29538;SDS011;16482;51.046;4.498;2023-03-01T05:00:30;4.35;;;3.00;;
29538;SDS011;16482;51.046;4.498;2023-03-01T05:02:59;3.85;;;2.85;;
29538;SDS011;16482;51.046;4.498;2023-03-01T05:05:34;3.97;;;2.72;;
29538;SDS011;16482;51.046;4.498;2023-03-01T05:08:05;4.78;;;2.92;;
29538;SDS011;16482;51.046;4.498;2023-03-01T05:10:33;3.20;;;2.53;;
29538;SDS011;16482;51.046;4.498;2023-03-01T05:13:01;4.35;;;2.65;;
29538;SDS011;16482;51.046;4.498;2023-03-01T05:15:30;3.03;;;2.40;;
29538;SDS011;16482;51.046;4.498;2023-03-01T05:17:59;4.78;;;2.40;;
29538;SDS011;16482;51.046;4.498;2023-03-01T05:20:28;3.58;;;2.60;;
29538;SDS011;16482;51.046;4.498;2023-03-01T05:23:04;3.90;;;2.40;;
29538;SDS011;16482;51.046;4.498;2023-03-01T05:25:30;3.85;;;2.38;;
29538;SDS011;16482;51.046;4.498;2023-03-01T05:28:00;2.50;;;1.98;;
29538;SDS011;16482;51.046;4.498;2023-03-01T05:30:30;3.83;;;2.70;;
29538;SDS011;16482;51.046;4.498;2023-03-01T05:32:57;3.20;;;2.40;;
29538;SDS011;16482;51.046;4.498;2023-03-01T05:35:23;3.05;;;2.30;;
29538;SDS011;16482;51.046;4.498;2023-03-01T05:37:58;3.47;;;2.55;;
29538;SDS011;16482;51.046;4.498;2023-03-01T05:40:30;3.33;;;2.47;;
29538;SDS011;16482;51.046;4.498;2023-03-01T05:43:00;2.80;;;2.05;;
29538;SDS011;16482;51.046;4.498;2023-03-01T05:45:30;4.03;;;2.30;;
29538;SDS011;16482;51.046;4.498;2023-03-01T05:48:00;3.53;;;2.50;;
29538;SDS011;16482;51.046;4.498;2023-03-01T05:50:34;2.90;;;2.25;;
29538;SDS011;16482;51.046;4.498;2023-03-01T05:53:02;3.90;;;2.15;;
29538;SDS011;16482;51.046;4.498;2023-03-01T05:55:33;3.22;;;1.95;;
29538;SDS011;16482;51.046;4.498;2023-03-01T05:58:03;3.78;;;2.38;;
29538;SDS011;16482;51.046;4.498;2023-03-01T06:00:31;3.13;;;2.20;;
29538;SDS011;16482;51.046;4.498;2023-03-01T06:02:57;2.80;;;2.28;;
29538;SDS011;16482;51.046;4.498;2023-03-01T06:05:34;3.20;;;2.35;;
29538;SDS011;16482;51.046;4.498;2023-03-01T06:08:00;4.22;;;2.30;;
29538;SDS011;16482;51.046;4.498;2023-03-01T06:10:30;3.05;;;2.28;;
29538;SDS011;16482;51.046;4.498;2023-03-01T06:12:59;2.10;;;1.90;;
29538;SDS011;16482;51.046;4.498;2023-03-01T06:15:33;3.15;;;2.03;;
29538;SDS011;16482;51.046;4.498;2023-03-01T06:18:02;3.23;;;2.13;;
29538;SDS011;16482;51.046;4.498;2023-03-01T06:20:28;2.83;;;2.10;;
29538;SDS011;16482;51.046;4.498;2023-03-01T06:22:57;2.83;;;2.10;;
29538;SDS011;16482;51.046;4.498;2023-03-01T06:25:28;3.17;;;2.20;;
29538;SDS011;16482;51.046;4.498;2023-03-01T06:27:57;2.58;;;2.03;;
29538;SDS011;16482;51.046;4.498;2023-03-01T06:30:30;2.72;;;1.90;;
29538;SDS011;16482;51.046;4.498;2023-03-01T06:32:59;2.75;;;2.20;;
29538;SDS011;16482;51.046;4.498;2023-03-01T06:35:29;5.20;;;2.33;;
29538;SDS011;16482;51.046;4.498;2023-03-01T06:37:59;2.70;;;2.08;;
29538;SDS011;16482;51.046;4.498;2023-03-01T06:40:29;3.80;;;2.47;;
29538;SDS011;16482;51.046;4.498;2023-03-01T06:42:59;3.55;;;2.28;;
29538;SDS011;16482;51.046;4.498;2023-03-01T06:45:33;4.50;;;2.70;;
29538;SDS011;16482;51.046;4.498;2023-03-01T06:48:03;2.38;;;1.85;;
29538;SDS011;16482;51.046;4.498;2023-03-01T06:50:30;3.35;;;2.22;;
29538;SDS011;16482;51.046;4.498;2023-03-01T06:53:04;2.58;;;2.10;;
29538;SDS011;16482;51.046;4.498;2023-03-01T06:55:30;2.35;;;2.10;;
29538;SDS011;16482;51.046;4.498;2023-03-01T06:58:05;4.68;;;2.13;;
29538;SDS011;16482;51.046;4.498;2023-03-01T07:00:31;5.72;;;2.25;;
29538;SDS011;16482;51.046;4.498;2023-03-01T07:02:58;5.47;;;2.20;;
29538;SDS011;16482;51.046;4.498;2023-03-01T07:05:32;3.83;;;2.10;;
29538;SDS011;16482;51.046;4.498;2023-03-01T07:07:58;2.50;;;2.00;;
29538;SDS011;16482;51.046;4.498;2023-03-01T07:10:33;2.80;;;2.00;;
29538;SDS011;16482;51.046;4.498;2023-03-01T07:13:01;3.10;;;1.90;;
29538;SDS011;16482;51.046;4.498;2023-03-01T07:15:28;4.32;;;2.22;;
29538;SDS011;16482;51.046;4.498;2023-03-01T07:17:58;6.85;;;2.50;;
29538;SDS011;16482;51.046;4.498;2023-03-01T07:20:27;3.72;;;2.13;;
29538;SDS011;16482;51.046;4.498;2023-03-01T07:23:00;2.58;;;2.00;;
29538;SDS011;16482;51.046;4.498;2023-03-01T07:25:29;5.18;;;2.10;;
29538;SDS011;16482;51.046;4.498;2023-03-01T07:28:12;6.32;;;2.05;;
29538;SDS011;16482;51.046;4.498;2023-03-01T07:30:38;6.40;;;2.10;;
29538;SDS011;16482;51.046;4.498;2023-03-01T07:33:05;4.93;;;1.90;;
29538;SDS011;16482;51.046;4.498;2023-03-01T07:35:31;6.40;;;2.08;;
29538;SDS011;16482;51.046;4.498;2023-03-01T07:37:58;4.35;;;1.95;;
29538;SDS011;16482;51.046;4.498;2023-03-01T07:40:27;3.63;;;2.40;;
29538;SDS011;16482;51.046;4.498;2023-03-01T07:42:59;4.97;;;2.28;;
29538;SDS011;16482;51.046;4.498;2023-03-01T07:45:29;3.47;;;1.85;;
29538;SDS011;16482;51.046;4.498;2023-03-01T07:48:04;2.72;;;1.85;;
29538;SDS011;16482;51.046;4.498;2023-03-01T07:50:30;6.13;;;2.22;;
29538;SDS011;16482;51.046;4.498;2023-03-01T07:52:58;4.00;;;2.10;;
29538;SDS011;16482;51.046;4.498;2023-03-01T07:55:30;8.20;;;2.45;;
29538;SDS011;16482;51.046;4.498;2023-03-01T07:57:56;3.05;;;2.00;;
29538;SDS011;16482;51.046;4.498;2023-03-01T08:00:29;5.90;;;2.10;;
29538;SDS011;16482;51.046;4.498;2023-03-01T08:03:02;3.67;;;1.95;;
29538;SDS011;16482;51.046;4.498;2023-03-01T08:05:29;3.55;;;2.25;;
29538;SDS011;16482;51.046;4.498;2023-03-01T08:07:59;3.58;;;2.30;;
29538;SDS011;16482;51.046;4.498;2023-03-01T08:10:35;3.80;;;2.15;;
29538;SDS011;16482;51.046;4.498;2023-03-01T08:13:01;5.75;;;2.00;;
29538;SDS011;16482;51.046;4.498;2023-03-01T08:15:30;3.60;;;2.25;;
29538;SDS011;16482;51.046;4.498;2023-03-01T08:17:59;4.10;;;2.28;;
29538;SDS011;16482;51.046;4.498;2023-03-01T08:20:33;3.38;;;1.98;;
29538;SDS011;16482;51.046;4.498;2023-03-01T08:22:59;3.75;;;2.00;;
29538;SDS011;16482;51.046;4.498;2023-03-01T08:25:28;4.72;;;2.03;;
29538;SDS011;16482;51.046;4.498;2023-03-01T08:28:01;4.28;;;2.50;;
29538;SDS011;16482;51.046;4.498;2023-03-01T08:30:30;6.05;;;2.22;;
29538;SDS011;16482;51.046;4.498;2023-03-01T08:32:58;2.17;;;1.98;;
29538;SDS011;16482;51.046;4.498;2023-03-01T08:35:32;3.45;;;1.98;;
29538;SDS011;16482;51.046;4.498;2023-03-01T08:38:01;5.80;;;2.47;;
29538;SDS011;16482;51.046;4.498;2023-03-01T08:40:34;4.75;;;2.42;;
29538;SDS011;16482;51.046;4.498;2023-03-01T08:43:00;3.83;;;1.95;;
29538;SDS011;16482;51.046;4.498;2023-03-01T08:45:28;3.88;;;2.13;;
29538;SDS011;16482;51.046;4.498;2023-03-01T08:48:00;2.63;;;1.83;;
29538;SDS011;16482;51.046;4.498;2023-03-01T08:50:33;2.65;;;1.92;;
29538;SDS011;16482;51.046;4.498;2023-03-01T08:52:59;3.78;;;2.10;;
29538;SDS011;16482;51.046;4.498;2023-03-01T08:55:25;3.53;;;2.00;;
29538;SDS011;16482;51.046;4.498;2023-03-01T08:58:04;2.20;;;1.83;;
29538;SDS011;16482;51.046;4.498;2023-03-01T09:00:29;3.35;;;2.05;;
29538;SDS011;16482;51.046;4.498;2023-03-01T09:03:04;2.97;;;2.03;;
29538;SDS011;16482;51.046;4.498;2023-03-01T09:05:31;3.05;;;2.00;;
29538;SDS011;16482;51.046;4.498;2023-03-01T09:08:01;2.53;;;2.08;;
29538;SDS011;16482;51.046;4.498;2023-03-01T09:10:30;4.60;;;2.20;;
29538;SDS011;16482;51.046;4.498;2023-03-01T09:12:58;4.93;;;2.00;;
29538;SDS011;16482;51.046;4.498;2023-03-01T09:15:30;2.92;;;2.10;;
29538;SDS011;16482;51.046;4.498;2023-03-01T09:18:05;2.75;;;2.00;;
29538;SDS011;16482;51.046;4.498;2023-03-01T09:20:31;2.85;;;2.15;;
29538;SDS011;16482;51.046;4.498;2023-03-01T09:23:00;2.72;;;2.40;;
29538;SDS011;16482;51.046;4.498;2023-03-01T09:25:26;3.72;;;2.20;;
29538;SDS011;16482;51.046;4.498;2023-03-01T09:28:00;3.88;;;2.03;;
29538;SDS011;16482;51.046;4.498;2023-03-01T09:30:29;3.22;;;2.05;;
29538;SDS011;16482;51.046;4.498;2023-03-01T09:33:01;4.65;;;2.47;;
29538;SDS011;16482;51.046;4.498;2023-03-01T09:35:29;5.15;;;3.22;;
29538;SDS011;16482;51.046;4.498;2023-03-01T09:37:58;3.85;;;2.92;;
29538;SDS011;16482;51.046;4.498;2023-03-01T09:40:32;6.40;;;2.50;;
29538;SDS011;16482;51.046;4.498;2023-03-01T09:43:05;5.47;;;2.90;;
29538;SDS011;16482;51.046;4.498;2023-03-01T09:45:52;2.28;;;2.08;;
29538;SDS011;16482;51.046;4.498;2023-03-01T09:48:21;4.78;;;2.80;;
29538;SDS011;16482;51.046;4.498;2023-03-01T09:50:50;4.32;;;2.55;;
29538;SDS011;16482;51.046;4.498;2023-03-01T09:53:26;4.05;;;2.63;;
29538;SDS011;16482;51.046;4.498;2023-03-01T09:56:22;3.67;;;2.45;;
29538;SDS011;16482;51.046;4.498;2023-03-01T10:01:38;4.43;;;2.65;;
29538;SDS011;16482;51.046;4.498;2023-03-01T10:09:39;6.65;;;3.05;;
29538;SDS011;16482;51.046;4.498;2023-03-01T10:12:12;5.40;;;3.10;;
29538;SDS011;16482;51.046;4.498;2023-03-01T10:17:26;3.67;;;2.63;;
29538;SDS011;16482;51.046;4.498;2023-03-01T10:20:33;4.40;;;2.97;;
29538;SDS011;16482;51.046;4.498;2023-03-01T10:23:11;5.22;;;2.38;;
29538;SDS011;16482;51.046;4.498;2023-03-01T10:28:44;4.25;;;2.70;;
29538;SDS011;16482;51.046;4.498;2023-03-01T10:31:25;5.15;;;2.85;;
29538;SDS011;16482;51.046;4.498;2023-03-01T10:34:02;4.85;;;2.50;;
29538;SDS011;16482;51.046;4.498;2023-03-01T10:36:33;4.57;;;2.40;;
29538;SDS011;16482;51.046;4.498;2023-03-01T10:38:59;8.35;;;3.35;;
29538;SDS011;16482;51.046;4.498;2023-03-01T10:42:19;5.13;;;2.80;;
29538;SDS011;16482;51.046;4.498;2023-03-01T10:48:06;3.67;;;2.58;;
29538;SDS011;16482;51.046;4.498;2023-03-01T10:50:49;4.88;;;3.00;;
29538;SDS011;16482;51.046;4.498;2023-03-01T10:53:32;4.68;;;2.72;;
29538;SDS011;16482;51.046;4.498;2023-03-01T10:58:27;4.28;;;2.90;;
29538;SDS011;16482;51.046;4.498;2023-03-01T11:00:55;3.13;;;2.50;;
29538;SDS011;16482;51.046;4.498;2023-03-01T11:03:29;4.90;;;2.88;;
29538;SDS011;16482;51.046;4.498;2023-03-01T11:08:54;4.23;;;3.00;;
29538;SDS011;16482;51.046;4.498;2023-03-01T11:13:58;6.35;;;3.03;;
29538;SDS011;16482;51.046;4.498;2023-03-01T11:16:35;4.28;;;2.75;;
29538;SDS011;16482;51.046;4.498;2023-03-01T11:21:36;3.97;;;2.88;;
29538;SDS011;16482;51.046;4.498;2023-03-01T11:24:06;4.03;;;2.40;;
29538;SDS011;16482;51.046;4.498;2023-03-01T11:26:38;4.57;;;2.75;;
29538;SDS011;16482;51.046;4.498;2023-03-01T11:29:27;5.07;;;3.35;;
29538;SDS011;16482;51.046;4.498;2023-03-01T11:32:10;4.15;;;2.70;;
29538;SDS011;16482;51.046;4.498;2023-03-01T11:37:35;3.22;;;2.40;;
29538;SDS011;16482;51.046;4.498;2023-03-01T11:54:59;3.30;;;2.60;;
29538;SDS011;16482;51.046;4.498;2023-03-01T12:05:51;3.60;;;2.80;;
29538;SDS011;16482;51.046;4.498;2023-03-01T12:13:59;5.03;;;2.97;;
29538;SDS011;16482;51.046;4.498;2023-03-01T12:31:29;3.47;;;2.60;;
29538;SDS011;16482;51.046;4.498;2023-03-01T12:43:07;3.67;;;2.78;;
29538;SDS011;16482;51.046;4.498;2023-03-01T12:51:01;5.72;;;2.92;;
29538;SDS011;16482;51.046;4.498;2023-03-01T12:53:36;4.93;;;2.47;;
29538;SDS011;16482;51.046;4.498;2023-03-01T12:56:06;4.90;;;2.75;;
29538;SDS011;16482;51.046;4.498;2023-03-01T13:04:20;3.72;;;2.55;;
29538;SDS011;16482;51.046;4.498;2023-03-01T13:06:55;3.90;;;2.60;;
29538;SDS011;16482;51.046;4.498;2023-03-01T13:09:43;3.70;;;2.58;;
29538;SDS011;16482;51.046;4.498;2023-03-01T13:17:48;5.35;;;2.47;;
29538;SDS011;16482;51.046;4.498;2023-03-01T13:23:07;6.65;;;2.67;;
29538;SDS011;16482;51.046;4.498;2023-03-01T13:25:52;4.50;;;2.90;;
29538;SDS011;16482;51.046;4.498;2023-03-01T13:33:51;3.70;;;2.33;;
29538;SDS011;16482;51.046;4.498;2023-03-01T13:39:39;3.50;;;2.50;;
29538;SDS011;16482;51.046;4.498;2023-03-01T13:41:53;3.83;;;2.53;;
29538;SDS011;16482;51.046;4.498;2023-03-01T13:44:32;4.50;;;2.58;;
29538;SDS011;16482;51.046;4.498;2023-03-01T13:47:17;4.47;;;2.60;;
29538;SDS011;16482;51.046;4.498;2023-03-01T13:52:39;3.60;;;2.40;;
29538;SDS011;16482;51.046;4.498;2023-03-01T13:55:21;3.15;;;2.42;;
29538;SDS011;16482;51.046;4.498;2023-03-01T13:58:22;4.45;;;2.97;;
29538;SDS011;16482;51.046;4.498;2023-03-01T14:01:02;3.72;;;2.92;;
29538;SDS011;16482;51.046;4.498;2023-03-01T14:03:31;3.75;;;2.50;;
29538;SDS011;16482;51.046;4.498;2023-03-01T14:06:00;3.95;;;3.03;;
29538;SDS011;16482;51.046;4.498;2023-03-01T14:08:27;3.40;;;2.60;;
29538;SDS011;16482;51.046;4.498;2023-03-01T14:13:58;5.18;;;2.92;;
29538;SDS011;16482;51.046;4.498;2023-03-01T14:21:21;3.42;;;2.35;;
29538;SDS011;16482;51.046;4.498;2023-03-01T14:23:51;3.63;;;2.70;;
29538;SDS011;16482;51.046;4.498;2023-03-01T14:26:22;4.00;;;2.50;;
29538;SDS011;16482;51.046;4.498;2023-03-01T14:28:51;3.58;;;2.35;;
29538;SDS011;16482;51.046;4.498;2023-03-01T14:31:37;3.83;;;2.95;;
29538;SDS011;16482;51.046;4.498;2023-03-01T14:34:04;3.60;;;2.58;;
29538;SDS011;16482;51.046;4.498;2023-03-01T14:36:31;4.30;;;2.70;;
29538;SDS011;16482;51.046;4.498;2023-03-01T14:38:59;3.30;;;2.55;;
29538;SDS011;16482;51.046;4.498;2023-03-01T14:41:33;3.70;;;2.40;;
29538;SDS011;16482;51.046;4.498;2023-03-01T14:44:05;4.40;;;2.88;;
29538;SDS011;16482;51.046;4.498;2023-03-01T14:46:41;7.28;;;3.50;;
29538;SDS011;16482;51.046;4.498;2023-03-01T14:49:14;4.40;;;2.67;;
29538;SDS011;16482;51.046;4.498;2023-03-01T14:51:57;3.10;;;2.38;;
29538;SDS011;16482;51.046;4.498;2023-03-01T14:54:44;4.28;;;2.40;;
29538;SDS011;16482;51.046;4.498;2023-03-01T14:57:25;4.22;;;2.50;;
29538;SDS011;16482;51.046;4.498;2023-03-01T14:59:53;3.75;;;2.83;;
29538;SDS011;16482;51.046;4.498;2023-03-01T15:02:30;3.10;;;2.78;;
29538;SDS011;16482;51.046;4.498;2023-03-01T15:04:58;3.88;;;2.72;;
29538;SDS011;16482;51.046;4.498;2023-03-01T15:07:30;4.10;;;2.92;;
29538;SDS011;16482;51.046;4.498;2023-03-01T15:10:02;3.25;;;2.70;;
29538;SDS011;16482;51.046;4.498;2023-03-01T15:12:36;4.25;;;2.63;;
29538;SDS011;16482;51.046;4.498;2023-03-01T15:18:15;4.05;;;2.55;;
29538;SDS011;16482;51.046;4.498;2023-03-01T15:20:44;3.90;;;2.63;;
29538;SDS011;16482;51.046;4.498;2023-03-01T15:25:47;3.42;;;2.47;;
29538;SDS011;16482;51.046;4.498;2023-03-01T15:28:21;4.43;;;2.70;;
29538;SDS011;16482;51.046;4.498;2023-03-01T15:30:53;4.00;;;2.42;;
29538;SDS011;16482;51.046;4.498;2023-03-01T15:35:53;4.80;;;2.70;;
29538;SDS011;16482;51.046;4.498;2023-03-01T15:38:31;3.50;;;2.72;;
29538;SDS011;16482;51.046;4.498;2023-03-01T15:41:20;4.45;;;3.05;;
29538;SDS011;16482;51.046;4.498;2023-03-01T15:43:54;7.30;;;2.97;;
29538;SDS011;16482;51.046;4.498;2023-03-01T15:46:22;4.00;;;2.58;;
29538;SDS011;16482;51.046;4.498;2023-03-01T15:48:52;4.28;;;2.25;;
29538;SDS011;16482;51.046;4.498;2023-03-01T15:51:31;4.18;;;2.78;;
29538;SDS011;16482;51.046;4.498;2023-03-01T15:54:10;6.60;;;2.30;;
29538;SDS011;16482;51.046;4.498;2023-03-01T15:56:49;4.10;;;2.70;;
29538;SDS011;16482;51.046;4.498;2023-03-01T15:59:16;3.10;;;2.33;;
29538;SDS011;16482;51.046;4.498;2023-03-01T16:01:43;3.50;;;2.55;;
29538;SDS011;16482;51.046;4.498;2023-03-01T16:04:13;3.17;;;2.40;;
29538;SDS011;16482;51.046;4.498;2023-03-01T16:06:50;5.40;;;2.45;;
29538;SDS011;16482;51.046;4.498;2023-03-01T16:09:21;3.58;;;2.33;;
29538;SDS011;16482;51.046;4.498;2023-03-01T16:11:51;3.08;;;2.38;;
29538;SDS011;16482;51.046;4.498;2023-03-01T16:14:18;5.15;;;2.83;;
29538;SDS011;16482;51.046;4.498;2023-03-01T16:16:44;3.00;;;2.40;;
29538;SDS011;16482;51.046;4.498;2023-03-01T16:19:10;3.55;;;2.35;;
29538;SDS011;16482;51.046;4.498;2023-03-01T16:21:38;4.07;;;2.30;;
29538;SDS011;16482;51.046;4.498;2023-03-01T16:24:04;2.75;;;2.30;;
29538;SDS011;16482;51.046;4.498;2023-03-01T16:26:31;4.28;;;2.13;;
29538;SDS011;16482;51.046;4.498;2023-03-01T16:28:57;3.35;;;1.80;;
29538;SDS011;16482;51.046;4.498;2023-03-01T16:31:24;4.63;;;2.47;;
29538;SDS011;16482;51.046;4.498;2023-03-01T16:33:54;3.45;;;2.13;;
29538;SDS011;16482;51.046;4.498;2023-03-01T16:36:24;4.28;;;2.30;;
29538;SDS011;16482;51.046;4.498;2023-03-01T16:38:53;3.53;;;2.10;;
29538;SDS011;16482;51.046;4.498;2023-03-01T16:41:23;4.70;;;1.98;;
29538;SDS011;16482;51.046;4.498;2023-03-01T16:43:49;2.78;;;2.03;;
29538;SDS011;16482;51.046;4.498;2023-03-01T16:46:21;3.83;;;1.70;;
29538;SDS011;16482;51.046;4.498;2023-03-01T16:48:52;2.20;;;1.83;;
29538;SDS011;16482;51.046;4.498;2023-03-01T16:51:22;2.20;;;2.00;;
29538;SDS011;16482;51.046;4.498;2023-03-01T16:53:51;2.90;;;1.90;;
29538;SDS011;16482;51.046;4.498;2023-03-01T16:56:25;3.67;;;2.10;;
29538;SDS011;16482;51.046;4.498;2023-03-01T16:58:51;5.03;;;2.30;;
29538;SDS011;16482;51.046;4.498;2023-03-01T17:01:26;4.80;;;2.00;;
29538;SDS011;16482;51.046;4.498;2023-03-01T17:03:59;3.10;;;1.90;;
29538;SDS011;16482;51.046;4.498;2023-03-01T17:06:26;3.58;;;2.10;;
29538;SDS011;16482;51.046;4.498;2023-03-01T17:08:57;3.08;;;1.85;;
29538;SDS011;16482;51.046;4.498;2023-03-01T17:11:24;3.83;;;2.30;;
29538;SDS011;16482;51.046;4.498;2023-03-01T17:13:53;6.50;;;3.38;;
29538;SDS011;16482;51.046;4.498;2023-03-01T17:16:22;5.28;;;3.03;;
29538;SDS011;16482;51.046;4.498;2023-03-01T17:18:55;6.93;;;3.58;;
29538;SDS011;16482;51.046;4.498;2023-03-01T17:21:23;7.40;;;3.40;;
29538;SDS011;16482;51.046;4.498;2023-03-01T17:23:54;8.88;;;3.47;;
29538;SDS011;16482;51.046;4.498;2023-03-01T17:26:23;5.47;;;3.22;;
29538;SDS011;16482;51.046;4.498;2023-03-01T17:28:58;7.20;;;3.47;;
29538;SDS011;16482;51.046;4.498;2023-03-01T17:33:50;5.97;;;3.50;;
29538;SDS011;16482;51.046;4.498;2023-03-01T17:36:24;5.93;;;3.40;;
29538;SDS011;16482;51.046;4.498;2023-03-01T17:38:57;4.65;;;3.20;;
29538;SDS011;16482;51.046;4.498;2023-03-01T17:41:23;7.28;;;3.40;;